createdAt,value
2023-02-03T00:01:46.550Z,1021.6163697333852
2023-02-03T00:08:08.057Z,1021.614991562514
2023-02-03T00:14:29.148Z,1021.64612078383
2023-02-03T00:20:50.597Z,1021.6242252956615
2023-02-03T00:27:11.360Z,1021.5923122459626
2023-02-03T00:33:42.085Z,1021.6888239998652
2023-02-03T00:40:03.385Z,1021.6993122443204
2023-02-03T00:46:24.669Z,1021.7641618365549
2023-02-03T00:56:51.862Z,1021.6321109729778
2023-02-03T01:03:13.073Z,1021.4348279627905
2023-02-03T01:09:34.732Z,1021.4403958336752
2023-02-03T01:15:56.282Z,1021.4155768179545
2023-02-03T01:22:18.347Z,1021.3384109541441
2023-02-03T01:34:54.951Z,1021.0245524744118
2023-02-03T01:47:19.141Z,1020.7262013633042
2023-02-03T01:53:40.026Z,1020.6153831134432
2023-02-03T02:00:01.614Z,1020.5701680656366
2023-02-03T02:07:29.833Z,1020.5634712502776
2023-02-03T02:16:33.657Z,1020.5195399692589
2023-02-03T02:23:28.795Z,1020.5808707489531
2023-02-03T02:29:50.058Z,1020.688451352954
2023-02-03T02:36:12.203Z,1020.674847488358
2023-02-03T02:42:33.700Z,1020.4941797837658
2023-02-03T02:48:55.349Z,1020.3078928323467
2023-02-03T02:55:16.673Z,1020.2659435521912
2023-02-03T03:01:38.226Z,1020.1610142813527
2023-02-03T03:07:59.281Z,1020.0184523750238
2023-02-03T03:18:53.518Z,1020.0742329116626
2023-02-03T03:29:54.742Z,1019.9446838155656
2023-02-03T03:42:21.780Z,1019.7125463709804
2023-02-03T03:54:20.581Z,1019.6953901970778
2023-02-03T04:06:32.567Z,1019.81412750289
2023-02-03T04:12:54.237Z,1019.8266199035835
2023-02-03T04:19:17.026Z,1019.8335693029833
2023-02-03T04:25:38.583Z,1019.813104581909
2023-02-03T04:32:59.948Z,1019.664485430202
2023-02-03T04:44:06.445Z,1019.543322145553
2023-02-03T04:50:28.030Z,1019.3121425053081
2023-02-03T04:56:59.948Z,1019.1431602641449
2023-02-03T05:03:21.497Z,1019.0991059168296
2023-02-03T05:11:51.758Z,1019.0758235481247
2023-02-03T05:23:38.848Z,1019.2691548445889
2023-02-03T05:29:59.458Z,1019.2745161477333
2023-02-03T05:36:20.770Z,1019.3062932583146
2023-02-03T05:42:41.522Z,1019.2485672004391
2023-02-03T05:53:22.092Z,1019.125494890297
2023-02-03T05:59:42.680Z,1019.0550358250651
2023-02-03T06:06:04.222Z,1019.0527366567244
2023-02-03T06:12:26.463Z,1018.9375792866791
2023-02-03T06:18:49.313Z,1018.902486207149
2023-02-03T06:25:27.679Z,1018.9057170198109
2023-02-03T06:31:49.772Z,1018.8679101004761
2023-02-03T06:43:18.827Z,1018.6806467501999
2023-02-03T06:53:38.533Z,1018.5999327863748
2023-02-03T07:00:01.609Z,1018.4581804039799
2023-02-03T07:09:58.548Z,1018.2114625886222
2023-02-03T07:16:23.570Z,1018.2139041829822
2023-02-03T07:25:08.328Z,1018.3264724301886
2023-02-03T07:31:31.434Z,1018.1724258368382
2023-02-03T07:42:28.716Z,1018.2277951953149
2023-02-03T08:02:05.700Z,1018.2925760817674
2023-02-03T08:08:27.823Z,1018.3796197605556
2023-02-03T08:20:37.976Z,1018.3740838272812
2023-02-03T08:26:59.481Z,1018.3789936297381
2023-02-03T08:33:21.505Z,1018.4998859622752
2023-02-03T08:39:44.894Z,1018.5577627730287
2023-02-03T08:46:09.735Z,1018.6016137215237
2023-02-03T08:52:34.242Z,1018.800737609852
2023-02-03T08:58:57.597Z,1018.8564679380099
2023-02-03T09:07:32.938Z,1019.0159669942307
2023-02-03T09:17:50.164Z,1019.5279131413693
2023-02-03T09:24:14.504Z,1019.5586026381693
2023-02-03T09:30:39.155Z,1019.5563270828661
2023-02-03T09:37:02.869Z,1019.6598557073223
2023-02-03T09:43:27.146Z,1019.6436583279818
2023-02-03T09:49:51.551Z,1019.6510247796066
2023-02-03T09:56:16.350Z,1019.7201514863764
2023-02-03T10:05:39.148Z,1019.9204534893236
2023-02-03T10:12:03.628Z,1020.0865674186194
2023-02-03T10:18:27.795Z,1020.1241251671416
2023-02-03T10:24:52.142Z,1020.2668204822345
2023-02-03T10:31:16.806Z,1020.2704955328836
2023-02-03T10:37:40.951Z,1020.2583720182683
2023-02-03T10:46:43.442Z,1020.2337583956293
2023-02-03T10:58:04.278Z,1020.4903569550955
2023-02-03T11:04:28.369Z,1020.6054842481121
2023-02-03T11:10:51.821Z,1020.5419968338874
2023-02-03T11:17:32.432Z,1020.607290002665
2023-02-03T11:33:47.658Z,1020.7132748776542
2023-02-03T11:40:12.369Z,1020.763218449588
2023-02-03T11:46:37.094Z,1020.962047696905
2023-02-03T11:53:00.673Z,1021.0198202487543
2023-02-03T12:00:13.117Z,1020.9768863064264
2023-02-03T12:06:37.048Z,1020.9710945888032
2023-02-03T12:13:01.120Z,1021.1336118559043
2023-02-03T12:19:25.703Z,1021.1540323149926
2023-02-03T12:25:49.683Z,1021.2253384723217
2023-02-03T12:32:14.397Z,1021.2861348065748
2023-02-03T12:41:09.414Z,1021.2384508538996
2023-02-03T12:49:22.967Z,1021.2870108422973
2023-02-03T12:55:47.143Z,1021.3134241642042
2023-02-03T13:03:10.904Z,1021.2874217227426
2023-02-03T13:11:10.088Z,1021.3818801338552
2023-02-03T13:23:13.401Z,1021.4320199320567
2023-02-03T13:29:37.630Z,1021.5426055951532
2023-02-03T13:37:17.853Z,1021.7046357925805
2023-02-03T13:43:40.991Z,1021.7813599574833
2023-02-03T13:50:04.695Z,1021.8401219986862
2023-02-03T13:56:29.331Z,1021.9297171225857
2023-02-03T14:02:53.321Z,1022.0775015053445
2023-02-03T14:09:17.630Z,1022.1763416557374
2023-02-03T14:17:41.115Z,1022.2517269141879
2023-02-03T14:25:11.946Z,1022.456693682331
2023-02-03T14:31:35.218Z,1022.5904258319421
2023-02-03T14:40:52.471Z,1022.6956538657812
2023-02-03T14:47:15.692Z,1022.8528946988315
2023-02-03T14:53:39.856Z,1022.9164167948741
2023-02-03T15:00:03.640Z,1022.9561549225341
2023-02-03T15:06:28.000Z,1023.0494812771904
2023-02-03T15:18:10.164Z,1023.1322496665156
2023-02-03T15:24:33.263Z,1023.2175555875995
2023-02-03T15:30:57.313Z,1023.3608814693631
2023-02-03T15:37:20.681Z,1023.4131127914167
2023-02-03T15:43:43.789Z,1023.4815877293547
2023-02-03T15:50:07.465Z,1023.5380386385802
2023-02-03T15:56:31.353Z,1023.4821559554406
2023-02-03T16:02:53.915Z,1023.5467533063631
2023-02-03T16:09:14.560Z,1023.6681435797173
2023-02-03T16:15:35.850Z,1023.6924882849114
2023-02-03T16:26:42.025Z,1023.8687475723638
2023-02-03T16:33:02.519Z,1024.0303749499258
2023-02-03T16:43:26.881Z,1023.9848253865813
2023-02-03T16:49:47.867Z,1024.106929598347
2023-02-03T16:56:08.545Z,1024.2791634241435
2023-02-03T17:10:05.917Z,1024.3180249189766
2023-02-03T17:16:27.332Z,1024.3357837005854
2023-02-03T17:22:48.756Z,1024.3388717777693
2023-02-03T17:33:39.000Z,1024.499826100607
2023-02-03T17:59:37.435Z,1025.0183411080238
2023-02-03T18:05:59.180Z,1025.179923486031
2023-02-03T18:12:20.100Z,1025.3243754563111
2023-02-03T18:19:55.820Z,1025.5016681843872
2023-02-03T18:26:17.218Z,1025.5769638839383
2023-02-03T18:37:12.769Z,1025.7650032846336
2023-02-03T18:43:34.534Z,1025.8542867765211
2023-02-03T18:49:55.831Z,1025.9619033333213
2023-02-03T18:56:17.573Z,1025.947341594843
2023-02-03T19:02:42.247Z,1025.9390988496848
2023-02-03T19:09:05.481Z,1026.1253201558266
2023-02-03T19:15:28.715Z,1026.2233184207344
2023-02-03T19:21:51.241Z,1026.4007228580322
2023-02-03T19:33:50.816Z,1026.6673105742855
2023-02-03T19:40:16.749Z,1026.7798787769004
2023-02-03T19:46:42.752Z,1026.8498007156916
2023-02-03T19:53:05.858Z,1026.9462054831058
2023-02-03T19:59:29.786Z,1027.0170558672633
2023-02-03T20:05:55.375Z,1027.1630334221127
2023-02-03T20:12:19.007Z,1027.1658517495787
2023-02-03T20:18:40.566Z,1027.1900858374547
2023-02-03T20:25:03.327Z,1027.3182798432495
2023-02-03T20:31:25.841Z,1027.5230817420966
2023-02-03T20:37:49.124Z,1027.5827219338098
2023-02-03T20:45:20.949Z,1027.7013326088406
2023-02-03T20:51:44.888Z,1027.8073805734655
2023-02-03T20:58:06.456Z,1027.8998788205154
2023-02-03T21:04:28.243Z,1027.9830636619934
2023-02-03T21:10:49.848Z,1027.982714802401
2023-02-03T21:17:12.820Z,1028.007185766076
2023-02-03T21:28:44.463Z,1028.0697349767192
2023-02-03T21:41:04.849Z,1028.1463474431569
2023-02-03T21:47:28.145Z,1028.1275867115785
2023-02-03T21:53:54.573Z,1028.1359355417742
2023-02-03T22:00:22.935Z,1028.2755095563377
2023-02-03T22:09:31.794Z,1028.3856640443435
2023-02-03T22:15:55.464Z,1028.5518769469388
2023-02-03T22:22:19.614Z,1028.9652922266584
2023-02-03T22:28:45.479Z,1029.1261733827014
2023-02-03T22:35:12.120Z,1029.2553874205207
2023-02-03T22:47:31.339Z,1029.6936948274895
2023-02-03T22:53:58.121Z,1029.8325898403125
2023-02-03T23:00:27.405Z,1029.8578246321842
2023-02-03T23:06:52.231Z,1030.117887644128
2023-02-03T23:13:18.086Z,1030.2861279502677
2023-02-03T23:19:42.946Z,1030.4078807833016
2023-02-03T23:26:04.193Z,1030.565442995441
2023-02-03T23:32:25.935Z,1030.751302000636
2023-02-03T23:38:47.715Z,1030.8114830416464
2023-02-03T23:45:09.149Z,1031.0242703331862
2023-02-03T23:52:23.556Z,1031.189523127414
